الصفحة الرئيسية
METAR-TAF:

METAR-TAF

مطار :

Lae, بابوا نيو غينياالجديدة

دائرة عرض: 6-34-11S, خط طول: 146-43-34E, ارتفاع: 73 متر

مراقبة الطقس الحالي

تاريخ ووقت الإصدار 8ساعات و 53 دقيقة قبل الساعة 08:00UTC
ريح 7 عقدة من الشرق/الشمال الشرقي
درجة الحرارة 28°درجة مئوية
الرطوبة 70%
ضغط 1007 hPa
الرؤية 10 كم أو أكثر
غيوم متفرقة على ارتفاع 8000 قدم

METAR: AYNZ 220800Z 06007KT 9999 SCT080 28/22 Q1007

زمن: 02:53 (16:53 UTC)


TAF: مفقودة

أرصاد الطقس والتوقعات من أكثر من 4000 مطار (تقارير الطقس للمطار METAR والتنبؤ بالطقس بالمطارTAF).

المحطات المتاحة هي النقط الصفراء والحمراء على الخريطة.

حرك المؤشر فوق النقطة لمعرفة اسم المحطة.

ثم انقر لمعرفة أرصاد وتوقعات الطقس.

لتغيير الخارطة: اضغط على الأزرار الخضراء مع رمز الصليب الأسود للتكبير. على الزر الأخضر مع شرطة للتصغير، أو على الأسهم الخضراء للخرائط المجاورة.


METAR-TAF: